Alts de Monte Brisas, Puerto Rico
Current Conditions -  °F | °C
As of 7:53 AM on Saturday 22 Nov 2014 (Local Time) from TJNR Reporting Station
Broken Clouds Broken Clouds  
Wind Chill: 27°   Ceiling: 7000
Heat Index: 29°   Visibility: 10mi
Dew Point: 23°   Wind: 6mph
Humidity: 81%   Direction: 60°ENE
Pressure: 30.04"   Gusts: NA
Location:  18.3304°N, 65.6573°W
Report Text: TJNR 221153Z AUTO 06005KT 10SM FEW024 SCT055 BKN070 27/23 A3004 RMK AO2 RAE06 SLP173 P0000 60004 70007 T02670233 53019 $
Loading
Personal Weather Stations






























Interactive Weather Map New forecast layout! Learn more

10-Day Weather Forecast

Advertisements
Track Severe Weather on mobile